Terminal Aerodrome Forecast
Issued by NWS Jackson, MS

Home | Current Version | Previous Version | Text Only | Print | Product List | Glossary On
Versions: 1 2 3 4 5 6 7 8 9 10 11 12 13 14 15 16
488
FTUS44 KJAN 230607 RRA
TAFGWO
TAF
KGWO 230607Z 2306/2406 02004KT P6SM VCSH SCT015
     FM231000 17010KT P6SM BKN015
     FM231300 17010KT P6SM BKN025
     FM231700 18010KT P6SM VCSH BKN025
     FM232000 18010KT P6SM VCTS BKN035CB
     FM240200 18010KT 5SM -SHRA BR VCTS SCT015CB OVC030=

USA.gov is the U.S. government's official web portal to all federal, state and local government web resources and services.